Time,TemperatureF,DewpointF,PressureIn,WindDirection,WindDirectionDegrees,WindSpeedMPH,WindSpeedGustMPH,Humidity,HourlyPrecipIn,Conditions,Clouds,dailyrainin,SolarRadiationWatts/m^2,SoftwareType,DateUTC
2013-04-16 00:01:00,38.0,33.9,30.35,ENE,77,0.0,0.0,85,0.00,,CLR,0.00,0.00,VWS V14.01,2013-04-16 04:01:00,
2013-04-16 00:11:00,38.0,33.9,30.35,ENE,77,0.0,0.0,85,0.00,,CLR,0.00,0.00,VWS V14.01,2013-04-16 04:11:00,
2013-04-16 00:21:00,38.2,33.8,30.35,ENE,77,0.0,0.0,84,0.00,,CLR,0.00,0.00,VWS V14.01,2013-04-16 04:21:00,
2013-04-16 00:31:00,37.8,33.7,30.35,ENE,77,0.0,0.0,85,0.00,,CLR,0.00,0.00,VWS V14.01,2013-04-16 04:31:00,
2013-04-16 00:41:00,37.5,33.4,30.35,ENE,77,0.0,2.0,85,0.00,,CLR,0.00,0.00,VWS V14.01,2013-04-16 04:41:00,
2013-04-16 00:51:00,37.2,33.7,30.35,ENE,77,0.0,0.0,87,0.00,,CLR,0.00,0.00,VWS V14.01,2013-04-16 04:51:00,
2013-04-16 01:01:00,36.9,33.4,30.34,ENE,77,0.0,0.0,87,0.00,,CLR,0.00,0.00,VWS V14.01,2013-04-16 05:01:00,
2013-04-16 01:11:00,36.6,33.4,30.34,ENE,77,0.0,0.0,88,0.00,,CLR,0.00,0.00,VWS V14.01,2013-04-16 05:11:00,
2013-04-16 01:21:00,36.5,33.6,30.34,ENE,77,0.0,0.0,89,0.00,,CLR,0.00,0.00,VWS V14.01,2013-04-16 05:21:00,
2013-04-16 01:31:00,36.0,33.4,30.34,ENE,77,0.0,0.0,90,0.00,,CLR,0.00,0.00,VWS V14.01,2013-04-16 05:31:00,
2013-04-16 01:41:00,36.2,33.6,30.34,ENE,77,0.0,0.0,90,0.00,,CLR,0.00,0.00,VWS V14.01,2013-04-16 05:41:00,
2013-04-16 01:51:00,36.0,33.4,30.33,ENE,77,0.0,0.0,90,0.00,,CLR,0.00,0.00,VWS V14.01,2013-04-16 05:51:00,
2013-04-16 02:01:00,36.2,33.6,30.33,ENE,77,0.0,0.0,90,0.00,,CLR,0.00,0.00,VWS V14.01,2013-04-16 06:01:00,
2013-04-16 02:11:00,35.8,33.4,30.33,ENE,77,0.0,1.0,91,0.00,,CLR,0.00,0.00,VWS V14.01,2013-04-16 06:11:00,
2013-04-16 02:21:00,35.6,33.2,30.32,ENE,77,0.0,0.0,91,0.00,,CLR,0.00,0.00,VWS V14.01,2013-04-16 06:21:00,
2013-04-16 02:31:00,35.6,33.5,30.32,ENE,77,0.0,0.0,92,0.00,,CLR,0.00,0.00,VWS V14.01,2013-04-16 06:31:00,
2013-04-16 02:41:00,35.5,33.4,30.32,ENE,77,0.0,0.0,92,0.00,,CLR,0.00,0.00,VWS V14.01,2013-04-16 06:41:00,
2013-04-16 02:51:00,35.0,32.9,30.33,ENE,77,0.0,0.0,92,0.00,,CLR,0.00,0.00,VWS V14.01,2013-04-16 06:51:00,
2013-04-16 03:01:00,35.0,33.2,30.33,ENE,77,0.0,0.0,93,0.00,,CLR,0.00,0.00,VWS V14.01,2013-04-16 07:01:00,
2013-04-16 03:11:00,34.9,33.1,30.33,ENE,77,0.0,0.0,93,0.00,,CLR,0.00,0.00,VWS V14.01,2013-04-16 07:11:00,
2013-04-16 03:21:00,34.9,33.3,30.33,ENE,77,0.0,0.0,94,0.00,,CLR,0.00,0.00,VWS V14.01,2013-04-16 07:21:00,
2013-04-16 03:31:00,34.6,33.0,30.33,ENE,77,0.0,0.0,94,0.00,,CLR,0.00,0.00,VWS V14.01,2013-04-16 07:31:00,
2013-04-16 03:41:00,34.3,32.8,30.33,ENE,77,0.0,0.0,94,0.00,,CLR,0.00,0.00,VWS V14.01,2013-04-16 07:41:00,
2013-04-16 03:51:00,34.0,32.7,30.33,ENE,77,0.0,0.0,95,0.00,,CLR,0.00,0.00,VWS V14.01,2013-04-16 07:51:00,
2013-04-16 04:01:00,33.7,32.4,30.33,ENE,77,0.0,0.0,95,0.00,,CLR,0.00,0.00,VWS V14.01,2013-04-16 08:01:00,
2013-04-16 04:11:00,33.7,32.7,30.33,ENE,77,0.0,0.0,96,0.00,,CLR,0.00,0.00,VWS V14.01,2013-04-16 08:11:00,
2013-04-16 04:21:00,33.7,32.7,30.34,ENE,77,0.0,0.0,96,0.00,,CLR,0.00,0.00,VWS V14.01,2013-04-16 08:21:00,
2013-04-16 04:31:00,33.7,32.7,30.33,ENE,77,0.0,0.0,96,0.00,,CLR,0.00,0.00,VWS V14.01,2013-04-16 08:31:00,
2013-04-16 04:41:00,33.7,32.9,30.33,ENE,77,0.0,2.0,97,0.00,,CLR,0.00,0.00,VWS V14.01,2013-04-16 08:41:00,
2013-04-16 04:51:00,33.4,32.6,30.33,ENE,77,0.0,0.0,97,0.00,,CLR,0.00,0.00,VWS V14.01,2013-04-16 08:51:00,
2013-04-16 05:01:00,34.0,33.2,30.32,ENE,77,0.0,2.0,97,0.00,,CLR,0.00,0.00,VWS V14.01,2013-04-16 09:01:00,
2013-04-16 05:11:00,34.6,34.1,30.32,ENE,77,0.0,0.0,98,0.00,,CLR,0.00,0.00,VWS V14.01,2013-04-16 09:11:00,
2013-04-16 05:21:00,35.0,34.5,30.32,ENE,77,0.0,0.0,98,0.00,,CLR,0.00,0.00,VWS V14.01,2013-04-16 09:21:00,
2013-04-16 05:31:00,35.0,34.2,30.32,ENE,77,0.0,0.0,97,0.00,,CLR,0.00,0.00,VWS V14.01,2013-04-16 09:31:00,
2013-04-16 05:41:00,35.3,34.5,30.32,ENE,77,0.0,0.0,97,0.00,,BKN075,0.00,0.00,VWS V14.01,2013-04-16 09:41:00,
2013-04-16 05:51:00,35.3,34.5,30.32,ENE,77,0.0,0.0,97,0.00,,BKN075,0.00,0.00,VWS V14.01,2013-04-16 09:51:00,
2013-04-16 06:01:00,35.5,34.7,30.32,ENE,77,0.0,0.0,97,0.00,,BKN075,0.00,0.00,VWS V14.01,2013-04-16 10:01:00,
2013-04-16 06:11:00,35.9,35.1,30.32,ENE,77,0.0,0.0,97,0.00,,OVC075,0.00,0.00,VWS V14.01,2013-04-16 10:11:00,
2013-04-16 06:21:00,35.8,34.8,30.32,ENE,77,0.0,0.0,96,0.00,,OVC075,0.00,9.00,VWS V14.01,2013-04-16 10:21:00,
2013-04-16 06:31:00,36.2,35.4,30.32,ENE,77,0.0,0.0,97,0.00,,OVC075,0.00,9.00,VWS V14.01,2013-04-16 10:31:00,
2013-04-16 06:41:00,36.6,35.6,30.32,ENE,77,3.0,3.0,96,0.00,,OVC075,0.00,11.00,VWS V14.01,2013-04-16 10:41:00,
2013-04-16 06:51:00,36.8,35.8,30.32,ENE,77,0.0,4.0,96,0.00,,OVC075,0.00,26.00,VWS V14.01,2013-04-16 10:51:00,
2013-04-16 07:11:00,37.8,36.2,30.32,NNW,328,0.0,0.0,94,0.00,,OVC075,0.00,32.00,VWS V14.01,2013-04-16 11:11:00,
2013-04-16 07:21:00,38.2,36.4,30.32,NNW,328,0.0,0.0,93,0.00,,OVC075,0.00,51.00,VWS V14.01,2013-04-16 11:21:00,
2013-04-16 07:31:00,38.5,36.1,30.32,NNW,328,0.0,0.0,91,0.00,,OVC075,0.00,53.00,VWS V14.01,2013-04-16 11:31:00,
2013-04-16 07:41:00,38.9,35.1,30.32,NNW,328,0.0,0.0,86,0.00,,OVC075,0.00,56.00,VWS V14.01,2013-04-16 11:41:00,
2013-04-16 07:51:00,39.5,34.8,30.32,NNW,328,0.0,0.0,83,0.00,,OVC075,0.00,56.00,VWS V14.01,2013-04-16 11:51:00,
2013-04-16 08:01:00,39.6,34.6,30.32,NNW,328,0.0,0.0,82,0.00,,OVC075,0.00,56.00,VWS V14.01,2013-04-16 12:01:00,
2013-04-16 08:11:00,40.1,34.4,30.32,NNW,328,0.0,0.0,80,0.00,,OVC075,0.00,88.00,VWS V14.01,2013-04-16 12:11:00,
2013-04-16 08:21:00,40.3,34.0,30.32,NNW,328,0.0,0.0,78,0.00,,OVC075,0.00,77.00,VWS V14.01,2013-04-16 12:21:00,
2013-04-16 08:31:00,40.9,34.3,30.31,NNW,328,0.0,2.0,77,0.00,,OVC075,0.00,93.00,VWS V14.01,2013-04-16 12:31:00,
2013-04-16 08:41:00,41.5,34.2,30.31,WNW,303,2.0,4.0,75,0.00,,OVC075,0.00,123.00,VWS V14.01,2013-04-16 12:41:00,
2013-04-16 08:51:00,42.9,33.4,30.30,West,265,1.0,5.0,69,0.00,,OVC075,0.00,169.00,VWS V14.01,2013-04-16 12:51:00,
2013-04-16 09:01:00,43.8,33.6,30.30,West,266,3.0,6.0,67,0.00,,OVC075,0.00,93.00,VWS V14.01,2013-04-16 13:01:00,
2013-04-16 09:11:00,43.8,33.6,30.30,West,266,4.0,6.0,67,0.00,,OVC075,0.00,100.00,VWS V14.01,2013-04-16 13:11:00,
2013-04-16 09:21:00,44.2,34.7,30.29,West,266,6.0,7.0,69,0.00,,OVC075,0.00,211.00,VWS V14.01,2013-04-16 13:21:00,
2013-04-16 09:31:00,45.2,35.7,30.29,West,262,9.0,11.0,69,0.00,,OVC075,0.00,243.00,VWS V14.01,2013-04-16 13:31:00,
2013-04-16 09:41:00,46.0,35.7,30.29,West,268,10.0,11.0,67,0.00,,OVC075,0.00,236.00,VWS V14.01,2013-04-16 13:41:00,
2013-04-16 09:51:00,46.5,36.2,30.28,West,260,6.0,12.0,67,0.00,,OVC075,0.00,241.00,VWS V14.01,2013-04-16 13:51:00,
2013-04-16 10:01:00,47.1,36.3,30.27,West,269,6.0,10.0,66,0.00,,OVC075,0.00,223.00,VWS V14.01,2013-04-16 14:01:00,
2013-04-16 10:11:00,47.7,36.5,30.27,WSW,246,4.0,9.0,65,0.00,,OVC075,0.00,234.00,VWS V14.01,2013-04-16 14:11:00,
2013-04-16 10:21:00,48.9,36.1,30.27,West,268,5.0,10.0,61,0.00,,OVC075,0.00,359.00,VWS V14.01,2013-04-16 14:21:00,
2013-04-16 10:31:00,50.1,36.3,30.27,West,263,6.0,9.0,59,0.00,,OVC075,0.00,341.00,VWS V14.01,2013-04-16 14:31:00,
2013-04-16 10:41:00,50.5,36.3,30.27,West,279,10.0,13.0,58,0.00,,OVC075,0.00,216.00,VWS V14.01,2013-04-16 14:41:00,
2013-04-16 10:51:00,50.1,36.8,30.26,SW,224,0.0,12.0,60,0.00,,OVC075,0.00,206.00,VWS V14.01,2013-04-16 14:51:00,
2013-04-16 11:01:00,50.8,37.4,30.25,SW,233,2.0,15.0,60,0.00,,OVC075,0.00,278.00,VWS V14.01,2013-04-16 15:01:00,
2013-04-16 11:11:00,52.3,37.5,30.25,WSW,258,2.0,11.0,57,0.00,,OVC075,0.00,403.00,VWS V14.01,2013-04-16 15:11:00,
2013-04-16 11:21:00,53.3,37.6,30.24,SW,230,6.0,11.0,55,0.00,,OVC075,0.00,420.00,VWS V14.01,2013-04-16 15:21:00,
2013-04-16 11:41:00,57.2,38.2,30.21,WSW,252,5.0,13.0,49,0.00,,OVC075,0.00,1020.00,VWS V14.01,2013-04-16 15:41:00,
2013-04-16 11:51:00,58.4,37.7,30.19,West,269,6.0,12.0,46,0.00,,OVC075,0.00,875.00,VWS V14.01,2013-04-16 15:51:00,
2013-04-16 12:01:00,58.1,38.5,30.18,WSW,251,7.0,13.0,48,0.00,,OVC075,0.00,738.00,VWS V14.01,2013-04-16 16:01:00,
2013-04-16 12:11:00,58.3,38.2,30.18,West,259,9.0,15.0,47,0.00,,BKN075,0.00,823.00,VWS V14.01,2013-04-16 16:11:00,
2013-04-16 12:21:00,59.5,39.3,30.17,WSW,248,4.0,15.0,47,0.00,,BKN075,0.00,721.00,VWS V14.01,2013-04-16 16:21:00,
2013-04-16 12:31:00,59.5,38.7,30.17,WSW,257,6.0,13.0,46,0.00,,BKN075,0.00,519.00,VWS V14.01,2013-04-16 16:31:00,
2013-04-16 12:41:00,58.9,39.8,30.17,WNW,283,6.0,9.0,49,0.00,,FEW065,0.00,336.00,VWS V14.01,2013-04-16 16:41:00,
2013-04-16 12:51:00,60.4,40.1,30.16,West,266,7.0,11.0,47,0.00,,FEW065,0.00,733.00,VWS V14.01,2013-04-16 16:51:00,
2013-04-16 13:11:00,62.9,40.1,30.14,WNW,285,4.0,18.0,43,0.00,,FEW065,0.00,786.00,VWS V14.01,2013-04-16 17:11:00,
2013-04-16 13:21:00,64.0,41.7,30.12,West,264,10.0,20.0,44,0.00,,FEW065,0.00,744.00,VWS V14.01,2013-04-16 17:21:00,
2013-04-16 13:31:00,63.5,40.6,30.11,West,269,9.0,17.0,43,0.00,,FEW065,0.00,548.00,VWS V14.01,2013-04-16 17:31:00,
2013-04-16 13:41:00,64.5,40.9,30.11,WSW,255,12.0,14.0,42,0.00,,BKN065,0.00,612.00,VWS V14.01,2013-04-16 17:41:00,
2013-04-16 13:51:00,64.2,41.8,30.09,WSW,253,11.0,17.0,44,0.00,,BKN065,0.00,383.00,VWS V14.01,2013-04-16 17:51:00,
2013-04-16 14:01:00,64.5,41.5,30.09,West,262,10.0,18.0,43,0.00,,BKN065,0.00,459.00,VWS V14.01,2013-04-16 18:01:00,
2013-04-16 14:11:00,63.9,41.0,30.09,WSW,257,10.0,16.0,43,0.00,,FEW065,0.00,264.00,VWS V14.01,2013-04-16 18:11:00,
2013-04-16 14:21:00,63.1,41.4,30.09,WSW,257,11.0,17.0,45,0.00,,FEW065,0.00,160.00,VWS V14.01,2013-04-16 18:21:00,
2013-04-16 14:31:00,62.9,42.4,30.08,WSW,240,10.0,13.0,47,0.00,,FEW065,0.00,137.00,VWS V14.01,2013-04-16 18:31:00,
2013-04-16 14:41:00,62.1,44.3,30.08,WSW,258,6.0,15.0,52,0.00,,BKN080,0.00,86.00,VWS V14.01,2013-04-16 18:41:00,
2013-04-16 14:51:00,61.3,43.0,30.07,West,261,10.0,12.0,51,0.00,,BKN080,0.00,70.00,VWS V14.01,2013-04-16 18:51:00,
2013-04-16 15:11:00,61.2,45.9,30.07,West,265,11.0,20.0,57,0.00,,OVC070,0.00,51.00,VWS V14.01,2013-04-16 19:11:00,
2013-04-16 15:21:00,60.5,45.2,30.07,WSW,255,7.0,12.0,57,0.00,,OVC070,0.00,33.00,VWS V14.01,2013-04-16 19:21:00,
2013-04-16 15:31:00,60.1,46.2,30.06,WSW,239,4.0,14.0,60,0.00,,OVC070,0.00,30.00,VWS V14.01,2013-04-16 19:31:00,
2013-04-16 15:41:00,59.5,45.6,30.06,West,269,14.0,15.0,60,0.00,,OVC050,0.00,39.00,VWS V14.01,2013-04-16 19:41:00,
2013-04-16 15:51:00,59.9,46.0,30.05,West,264,7.0,17.0,60,0.00,,OVC050,0.00,63.00,VWS V14.01,2013-04-16 19:51:00,
2013-04-16 16:01:00,57.3,49.8,30.06,WSW,243,5.0,18.0,76,0.01,,OVC050,0.01,42.00,VWS V14.01,2013-04-16 20:01:00,
2013-04-16 16:11:00,54.8,50.7,30.06,WSW,252,0.0,7.0,86,0.03,,OVC050,0.03,35.00,VWS V14.01,2013-04-16 20:11:00,
2013-04-16 16:21:00,53.9,51.0,30.05,SW,232,0.0,5.0,90,0.03,,OVC050,0.03,40.00,VWS V14.01,2013-04-16 20:21:00,
2013-04-16 16:31:00,53.6,51.0,30.05,WSW,257,4.0,6.0,91,0.03,,OVC050,0.03,32.00,VWS V14.01,2013-04-16 20:31:00,
2013-04-16 16:41:00,53.8,51.2,30.05,West,259,4.0,9.0,91,0.03,,OVC060,0.03,46.00,VWS V14.01,2013-04-16 20:41:00,
2013-04-16 16:51:00,53.5,51.2,30.05,WSW,251,3.0,6.0,92,0.04,,OVC060,0.04,46.00,VWS V14.01,2013-04-16 20:51:00,
2013-04-16 17:01:00,53.2,50.9,30.04,SW,234,4.0,8.0,92,0.04,,OVC060,0.04,26.00,VWS V14.01,2013-04-16 21:01:00,
2013-04-16 17:11:00,53.1,50.8,30.04,WSW,249,3.0,7.0,92,0.03,,OVC050,0.04,26.00,VWS V14.01,2013-04-16 21:11:00,
2013-04-16 17:21:00,52.9,50.9,30.03,WSW,254,2.0,3.0,93,0.01,,OVC050,0.04,32.00,VWS V14.01,2013-04-16 21:21:00,
2013-04-16 17:31:00,53.1,50.8,30.03,West,271,3.0,6.0,92,0.01,,OVC050,0.04,11.00,VWS V14.01,2013-04-16 21:31:00,
2013-04-16 17:41:00,52.9,50.6,30.03,WSW,243,4.0,5.0,92,0.01,,OVC050,0.04,11.00,VWS V14.01,2013-04-16 21:41:00,
2013-04-16 17:51:00,52.8,50.8,30.01,WSW,243,0.0,4.0,93,0.01,,OVC050,0.04,32.00,VWS V14.01,2013-04-16 21:51:00,
2013-04-16 18:01:00,52.9,50.6,30.02,WSW,248,2.0,5.0,92,0.00,,OVC050,0.04,11.00,VWS V14.01,2013-04-16 22:01:00,
2013-04-16 18:11:00,52.9,50.6,30.02,WSW,245,0.0,6.0,92,0.00,,OVC043,0.04,0.00,VWS V14.01,2013-04-16 22:11:00,
2013-04-16 18:21:00,53.2,50.9,30.01,WSW,257,5.0,11.0,92,0.00,,OVC043,0.04,18.00,VWS V14.01,2013-04-16 22:21:00,
2013-04-16 18:31:00,54.1,50.6,30.00,WSW,240,5.0,11.0,88,0.00,,OVC043,0.04,25.00,VWS V14.01,2013-04-16 22:31:00,
2013-04-16 18:41:00,53.8,50.9,30.00,WSW,243,5.0,13.0,90,0.00,,OVC034,0.04,26.00,VWS V14.01,2013-04-16 22:41:00,
2013-04-16 18:51:00,54.1,50.9,29.99,West,261,13.0,15.0,89,0.00,,OVC034,0.04,39.00,VWS V14.01,2013-04-16 22:51:00,
2013-04-16 19:01:00,54.5,50.1,29.98,West,263,23.0,23.0,85,0.01,,OVC034,0.05,21.00,VWS V14.01,2013-04-16 23:01:00,
2013-04-16 19:21:00,55.7,49.6,29.97,SW,232,3.0,16.0,80,0.01,,OVC032,0.05,5.00,VWS V14.01,2013-04-16 23:21:00,
2013-04-16 19:31:00,55.9,49.5,29.97,WSW,238,4.0,11.0,79,0.01,,OVC032,0.05,0.00,VWS V14.01,2013-04-16 23:31:00,
2013-04-16 19:41:00,55.9,49.2,29.97,WSW,238,5.0,14.0,78,0.01,,BKN120,0.05,0.00,VWS V14.01,2013-04-16 23:41:00,
2013-04-16 19:51:00,55.9,49.2,29.97,WSW,254,5.0,18.0,78,0.01,,BKN120,0.05,0.00,VWS V14.01,2013-04-16 23:51:00,
2013-04-16 20:01:00,55.3,49.2,29.97,WSW,238,7.0,12.0,80,0.01,,BKN120,0.05,0.00,VWS V14.01,2013-04-17 00:01:00,
2013-04-16 20:11:00,55.4,49.3,29.97,WSW,240,4.0,12.0,80,0.00,,OVC060,0.05,0.00,VWS V14.01,2013-04-17 00:11:00,
2013-04-16 20:21:00,55.6,49.5,29.96,SW,233,6.0,9.0,80,0.00,,OVC060,0.05,0.00,VWS V14.01,2013-04-17 00:21:00,
2013-04-16 20:31:00,55.7,49.3,29.96,WSW,248,7.0,16.0,79,0.00,,OVC060,0.05,0.00,VWS V14.01,2013-04-17 00:31:00,
2013-04-16 20:41:00,55.7,49.3,29.96,SW,230,6.0,14.0,79,0.00,,OVC050,0.05,0.00,VWS V14.01,2013-04-17 00:41:00,
2013-04-16 20:51:00,55.7,49.3,29.96,SW,230,7.0,18.0,79,0.00,,OVC050,0.05,0.00,VWS V14.01,2013-04-17 00:51:00,
2013-04-16 21:01:00,55.6,49.2,29.94,West,273,7.0,14.0,79,0.00,,OVC050,0.05,0.00,VWS V14.01,2013-04-17 01:01:00,
2013-04-16 21:11:00,55.1,49.4,29.94,SW,227,10.0,16.0,81,0.00,,OVC075,0.05,0.00,VWS V14.01,2013-04-17 01:11:00,
2013-04-16 21:21:00,55.1,49.4,29.95,West,262,9.0,13.0,81,0.00,,OVC075,0.05,0.00,VWS V14.01,2013-04-17 01:21:00,
2013-04-16 21:31:00,54.8,49.1,29.95,WNW,292,6.0,13.0,81,0.00,,OVC075,0.05,0.00,VWS V14.01,2013-04-17 01:31:00,
2013-04-16 21:41:00,55.0,49.9,29.95,West,269,7.0,17.0,83,0.00,,OVC110,0.05,0.00,VWS V14.01,2013-04-17 01:41:00,
2013-04-16 21:51:00,54.4,50.6,29.95,WSW,245,11.0,17.0,87,0.00,,OVC110,0.05,0.00,VWS V14.01,2013-04-17 01:51:00,
2013-04-16 22:01:00,54.1,50.6,29.96,WSW,248,9.0,19.0,88,0.00,,OVC110,0.05,0.00,VWS V14.01,2013-04-17 02:01:00,
2013-04-16 22:11:00,54.7,50.9,29.96,WSW,241,7.0,18.0,87,0.00,,OVC110,0.05,0.00,VWS V14.01,2013-04-17 02:11:00,
2013-04-16 22:21:00,55.6,50.8,29.95,WSW,256,9.0,22.0,84,0.00,,OVC110,0.05,0.00,VWS V14.01,2013-04-17 02:21:00,
2013-04-16 22:31:00,55.4,51.0,29.96,West,263,10.0,18.0,85,0.00,,OVC110,0.05,0.00,VWS V14.01,2013-04-17 02:31:00,
2013-04-16 22:41:00,55.1,51.3,29.96,WSW,248,11.0,17.0,87,0.00,,OVC036,0.05,0.00,VWS V14.01,2013-04-17 02:41:00,
2013-04-16 22:51:00,54.7,51.5,29.96,West,264,9.0,14.0,89,0.00,,OVC036,0.05,0.00,VWS V14.01,2013-04-17 02:51:00,
2013-04-16 23:01:00,54.2,51.3,29.96,SW,228,9.0,13.0,90,0.00,,OVC036,0.05,0.00,VWS V14.01,2013-04-17 03:01:00,
2013-04-16 23:11:00,54.2,51.9,29.96,WSW,249,6.0,12.0,92,0.01,,OVC050,0.06,0.00,VWS V14.01,2013-04-17 03:11:00,
2013-04-16 23:21:00,53.9,51.9,29.95,West,262,8.0,8.0,93,0.01,,OVC050,0.06,0.00,VWS V14.01,2013-04-17 03:21:00,
2013-04-16 23:31:00,53.6,51.9,29.95,WSW,251,3.0,10.0,94,0.01,,OVC050,0.06,0.00,VWS V14.01,2013-04-17 03:31:00,
2013-04-16 23:41:00,53.6,52.2,29.95,West,266,3.0,7.0,95,0.01,,OVC040,0.06,0.00,VWS V14.01,2013-04-17 03:41:00,